sensor_id;sensor_type;location;lat;lon;timestamp;P1;durP1;ratioP1;P2;durP2;ratioP2
27612;SDS011;15036;48.094;-1.690;2023-05-07T00:00:18;12.63;;;4.68;;
27612;SDS011;15036;48.094;-1.690;2023-05-07T00:02:46;12.68;;;4.63;;
27612;SDS011;15036;48.094;-1.690;2023-05-07T00:05:11;12.90;;;4.57;;
27612;SDS011;15036;48.094;-1.690;2023-05-07T00:07:37;13.35;;;5.10;;
27612;SDS011;15036;48.094;-1.690;2023-05-07T00:10:03;14.55;;;4.53;;
27612;SDS011;15036;48.094;-1.690;2023-05-07T00:12:29;13.30;;;5.18;;
27612;SDS011;15036;48.094;-1.690;2023-05-07T00:14:58;13.38;;;4.88;;
27612;SDS011;15036;48.094;-1.690;2023-05-07T00:17:26;12.38;;;5.30;;
27612;SDS011;15036;48.094;-1.690;2023-05-07T00:19:51;13.70;;;4.82;;
27612;SDS011;15036;48.094;-1.690;2023-05-07T00:22:17;16.90;;;4.82;;
27612;SDS011;15036;48.094;-1.690;2023-05-07T00:24:42;14.82;;;4.90;;
27612;SDS011;15036;48.094;-1.690;2023-05-07T00:27:08;11.98;;;5.15;;
27612;SDS011;15036;48.094;-1.690;2023-05-07T00:29:33;13.75;;;5.22;;
27612;SDS011;15036;48.094;-1.690;2023-05-07T00:31:58;13.05;;;4.80;;
27612;SDS011;15036;48.094;-1.690;2023-05-07T00:34:24;12.23;;;4.80;;
27612;SDS011;15036;48.094;-1.690;2023-05-07T00:36:49;14.60;;;5.35;;
27612;SDS011;15036;48.094;-1.690;2023-05-07T00:39:14;14.35;;;5.35;;
27612;SDS011;15036;48.094;-1.690;2023-05-07T00:41:40;12.80;;;4.90;;
27612;SDS011;15036;48.094;-1.690;2023-05-07T00:44:05;13.95;;;4.88;;
27612;SDS011;15036;48.094;-1.690;2023-05-07T00:46:31;14.52;;;5.53;;
27612;SDS011;15036;48.094;-1.690;2023-05-07T00:48:57;14.35;;;4.78;;
27612;SDS011;15036;48.094;-1.690;2023-05-07T00:51:24;12.30;;;5.47;;
27612;SDS011;15036;48.094;-1.690;2023-05-07T00:53:51;15.50;;;5.18;;
27612;SDS011;15036;48.094;-1.690;2023-05-07T00:56:17;16.92;;;5.43;;
27612;SDS011;15036;48.094;-1.690;2023-05-07T00:58:42;14.23;;;5.88;;
27612;SDS011;15036;48.094;-1.690;2023-05-07T01:01:08;15.10;;;5.68;;
27612;SDS011;15036;48.094;-1.690;2023-05-07T01:03:33;15.52;;;5.88;;
27612;SDS011;15036;48.094;-1.690;2023-05-07T01:05:58;16.15;;;5.68;;
27612;SDS011;15036;48.094;-1.690;2023-05-07T01:08:25;16.13;;;6.05;;
27612;SDS011;15036;48.094;-1.690;2023-05-07T01:10:53;14.55;;;5.38;;
27612;SDS011;15036;48.094;-1.690;2023-05-07T01:13:19;12.15;;;5.25;;
27612;SDS011;15036;48.094;-1.690;2023-05-07T01:15:45;12.10;;;5.35;;
27612;SDS011;15036;48.094;-1.690;2023-05-07T01:18:11;13.23;;;5.00;;
27612;SDS011;15036;48.094;-1.690;2023-05-07T01:20:36;13.23;;;4.85;;
27612;SDS011;15036;48.094;-1.690;2023-05-07T01:23:01;14.68;;;5.57;;
27612;SDS011;15036;48.094;-1.690;2023-05-07T01:25:28;11.25;;;4.78;;
27612;SDS011;15036;48.094;-1.690;2023-05-07T01:27:54;15.23;;;5.78;;
27612;SDS011;15036;48.094;-1.690;2023-05-07T01:30:20;12.25;;;5.03;;
27612;SDS011;15036;48.094;-1.690;2023-05-07T01:32:51;13.90;;;5.38;;
27612;SDS011;15036;48.094;-1.690;2023-05-07T01:35:22;10.95;;;4.80;;
27612;SDS011;15036;48.094;-1.690;2023-05-07T01:37:52;10.52;;;5.18;;
27612;SDS011;15036;48.094;-1.690;2023-05-07T01:40:18;15.88;;;5.10;;
27612;SDS011;15036;48.094;-1.690;2023-05-07T01:42:44;13.35;;;5.40;;
27612;SDS011;15036;48.094;-1.690;2023-05-07T01:45:11;14.43;;;5.55;;
27612;SDS011;15036;48.094;-1.690;2023-05-07T01:47:37;14.05;;;5.28;;
27612;SDS011;15036;48.094;-1.690;2023-05-07T01:50:03;17.85;;;6.20;;
27612;SDS011;15036;48.094;-1.690;2023-05-07T01:52:30;12.35;;;5.03;;
27612;SDS011;15036;48.094;-1.690;2023-05-07T01:54:56;13.45;;;5.00;;
27612;SDS011;15036;48.094;-1.690;2023-05-07T01:57:21;15.27;;;5.72;;
27612;SDS011;15036;48.094;-1.690;2023-05-07T01:59:46;16.92;;;5.43;;
27612;SDS011;15036;48.094;-1.690;2023-05-07T02:02:12;13.80;;;5.80;;
27612;SDS011;15036;48.094;-1.690;2023-05-07T02:04:37;13.00;;;5.47;;
27612;SDS011;15036;48.094;-1.690;2023-05-07T02:07:03;14.60;;;5.88;;
27612;SDS011;15036;48.094;-1.690;2023-05-07T02:09:28;16.83;;;6.05;;
27612;SDS011;15036;48.094;-1.690;2023-05-07T02:11:53;16.13;;;5.88;;
27612;SDS011;15036;48.094;-1.690;2023-05-07T02:14:19;16.65;;;5.43;;
27612;SDS011;15036;48.094;-1.690;2023-05-07T02:16:45;17.60;;;5.78;;
27612;SDS011;15036;48.094;-1.690;2023-05-07T02:19:10;15.57;;;5.53;;
27612;SDS011;15036;48.094;-1.690;2023-05-07T02:21:36;12.77;;;5.32;;
27612;SDS011;15036;48.094;-1.690;2023-05-07T02:24:01;12.93;;;5.78;;
27612;SDS011;15036;48.094;-1.690;2023-05-07T02:26:26;13.68;;;5.40;;
27612;SDS011;15036;48.094;-1.690;2023-05-07T02:28:52;13.10;;;5.30;;
27612;SDS011;15036;48.094;-1.690;2023-05-07T02:31:18;17.20;;;6.45;;
27612;SDS011;15036;48.094;-1.690;2023-05-07T02:33:44;13.25;;;5.95;;
27612;SDS011;15036;48.094;-1.690;2023-05-07T02:36:10;15.82;;;6.22;;
27612;SDS011;15036;48.094;-1.690;2023-05-07T02:38:36;17.67;;;5.70;;
27612;SDS011;15036;48.094;-1.690;2023-05-07T02:41:02;15.85;;;5.68;;
27612;SDS011;15036;48.094;-1.690;2023-05-07T02:43:27;14.95;;;5.80;;
27612;SDS011;15036;48.094;-1.690;2023-05-07T02:46:02;18.15;;;6.10;;
27612;SDS011;15036;48.094;-1.690;2023-05-07T02:48:28;17.80;;;6.13;;
27612;SDS011;15036;48.094;-1.690;2023-05-07T02:50:53;17.15;;;6.22;;
27612;SDS011;15036;48.094;-1.690;2023-05-07T02:53:18;15.55;;;6.05;;
27612;SDS011;15036;48.094;-1.690;2023-05-07T02:55:44;12.57;;;6.20;;
27612;SDS011;15036;48.094;-1.690;2023-05-07T02:58:09;17.27;;;6.60;;
27612;SDS011;15036;48.094;-1.690;2023-05-07T03:00:34;15.73;;;5.93;;
27612;SDS011;15036;48.094;-1.690;2023-05-07T03:03:00;19.33;;;5.72;;
27612;SDS011;15036;48.094;-1.690;2023-05-07T03:05:25;11.98;;;5.50;;
27612;SDS011;15036;48.094;-1.690;2023-05-07T03:07:51;17.25;;;6.72;;
27612;SDS011;15036;48.094;-1.690;2023-05-07T03:10:16;21.08;;;7.03;;
27612;SDS011;15036;48.094;-1.690;2023-05-07T03:12:41;17.55;;;6.47;;
27612;SDS011;15036;48.094;-1.690;2023-05-07T03:15:07;16.67;;;6.43;;
27612;SDS011;15036;48.094;-1.690;2023-05-07T03:17:33;15.07;;;5.90;;
27612;SDS011;15036;48.094;-1.690;2023-05-07T03:19:58;18.58;;;6.10;;
27612;SDS011;15036;48.094;-1.690;2023-05-07T03:22:23;15.50;;;6.20;;
27612;SDS011;15036;48.094;-1.690;2023-05-07T03:24:49;18.75;;;6.07;;
27612;SDS011;15036;48.094;-1.690;2023-05-07T03:27:14;11.75;;;5.80;;
27612;SDS011;15036;48.094;-1.690;2023-05-07T03:29:39;19.85;;;6.00;;
27612;SDS011;15036;48.094;-1.690;2023-05-07T03:32:05;16.80;;;6.15;;
27612;SDS011;15036;48.094;-1.690;2023-05-07T03:34:30;21.67;;;6.13;;
27612;SDS011;15036;48.094;-1.690;2023-05-07T03:36:56;15.75;;;6.03;;
27612;SDS011;15036;48.094;-1.690;2023-05-07T03:39:21;15.70;;;5.85;;
27612;SDS011;15036;48.094;-1.690;2023-05-07T03:41:47;15.45;;;6.10;;
27612;SDS011;15036;48.094;-1.690;2023-05-07T03:44:12;18.98;;;6.20;;
27612;SDS011;15036;48.094;-1.690;2023-05-07T03:46:37;13.60;;;5.88;;
27612;SDS011;15036;48.094;-1.690;2023-05-07T03:49:03;13.60;;;5.70;;
27612;SDS011;15036;48.094;-1.690;2023-05-07T03:51:28;16.20;;;6.10;;
27612;SDS011;15036;48.094;-1.690;2023-05-07T03:53:54;12.93;;;6.10;;
27612;SDS011;15036;48.094;-1.690;2023-05-07T03:56:19;16.08;;;5.72;;
27612;SDS011;15036;48.094;-1.690;2023-05-07T03:58:46;20.75;;;6.00;;
27612;SDS011;15036;48.094;-1.690;2023-05-07T04:01:12;13.90;;;5.63;;
27612;SDS011;15036;48.094;-1.690;2023-05-07T04:03:37;11.02;;;5.68;;
27612;SDS011;15036;48.094;-1.690;2023-05-07T04:06:03;13.25;;;6.00;;
27612;SDS011;15036;48.094;-1.690;2023-05-07T04:08:28;14.55;;;5.80;;
27612;SDS011;15036;48.094;-1.690;2023-05-07T04:10:54;15.23;;;5.85;;
27612;SDS011;15036;48.094;-1.690;2023-05-07T04:13:20;14.30;;;6.25;;
27612;SDS011;15036;48.094;-1.690;2023-05-07T04:15:45;12.77;;;5.78;;
27612;SDS011;15036;48.094;-1.690;2023-05-07T04:18:11;13.43;;;6.10;;
27612;SDS011;15036;48.094;-1.690;2023-05-07T04:20:36;13.88;;;5.88;;
27612;SDS011;15036;48.094;-1.690;2023-05-07T04:23:02;11.70;;;5.43;;
27612;SDS011;15036;48.094;-1.690;2023-05-07T04:25:27;11.45;;;5.80;;
27612;SDS011;15036;48.094;-1.690;2023-05-07T04:27:53;12.98;;;6.18;;
27612;SDS011;15036;48.094;-1.690;2023-05-07T04:30:18;9.68;;;5.57;;
27612;SDS011;15036;48.094;-1.690;2023-05-07T04:32:44;13.27;;;6.10;;
27612;SDS011;15036;48.094;-1.690;2023-05-07T04:35:09;14.05;;;5.95;;
27612;SDS011;15036;48.094;-1.690;2023-05-07T04:37:35;13.57;;;5.20;;
27612;SDS011;15036;48.094;-1.690;2023-05-07T04:40:00;13.02;;;5.93;;
27612;SDS011;15036;48.094;-1.690;2023-05-07T04:42:26;13.20;;;6.47;;
27612;SDS011;15036;48.094;-1.690;2023-05-07T04:44:52;10.65;;;5.57;;
27612;SDS011;15036;48.094;-1.690;2023-05-07T04:47:18;10.40;;;5.85;;
27612;SDS011;15036;48.094;-1.690;2023-05-07T04:49:43;9.48;;;5.75;;
27612;SDS011;15036;48.094;-1.690;2023-05-07T04:52:09;10.88;;;6.65;;
27612;SDS011;15036;48.094;-1.690;2023-05-07T04:54:35;13.23;;;6.05;;
27612;SDS011;15036;48.094;-1.690;2023-05-07T04:57:00;13.32;;;6.55;;
27612;SDS011;15036;48.094;-1.690;2023-05-07T04:59:25;11.15;;;6.30;;
27612;SDS011;15036;48.094;-1.690;2023-05-07T05:01:51;12.48;;;6.55;;
27612;SDS011;15036;48.094;-1.690;2023-05-07T05:04:16;15.40;;;6.18;;
27612;SDS011;15036;48.094;-1.690;2023-05-07T05:06:41;11.18;;;6.03;;
27612;SDS011;15036;48.094;-1.690;2023-05-07T05:09:07;13.68;;;5.95;;
27612;SDS011;15036;48.094;-1.690;2023-05-07T05:11:32;14.25;;;6.65;;
27612;SDS011;15036;48.094;-1.690;2023-05-07T05:13:59;10.00;;;6.18;;
27612;SDS011;15036;48.094;-1.690;2023-05-07T05:16:25;10.65;;;6.28;;
27612;SDS011;15036;48.094;-1.690;2023-05-07T05:18:51;11.50;;;6.18;;
27612;SDS011;15036;48.094;-1.690;2023-05-07T05:21:17;11.82;;;6.05;;
27612;SDS011;15036;48.094;-1.690;2023-05-07T05:23:42;12.48;;;6.32;;
27612;SDS011;15036;48.094;-1.690;2023-05-07T05:26:09;8.80;;;5.68;;
27612;SDS011;15036;48.094;-1.690;2023-05-07T05:28:34;10.45;;;6.38;;
27612;SDS011;15036;48.094;-1.690;2023-05-07T05:31:03;11.88;;;6.13;;
27612;SDS011;15036;48.094;-1.690;2023-05-07T05:33:30;11.75;;;6.40;;
27612;SDS011;15036;48.094;-1.690;2023-05-07T05:35:56;8.63;;;5.35;;
27612;SDS011;15036;48.094;-1.690;2023-05-07T05:38:21;10.13;;;5.72;;
27612;SDS011;15036;48.094;-1.690;2023-05-07T05:40:46;9.27;;;6.07;;
27612;SDS011;15036;48.094;-1.690;2023-05-07T05:43:13;9.82;;;5.75;;
27612;SDS011;15036;48.094;-1.690;2023-05-07T05:45:39;9.80;;;6.00;;
27612;SDS011;15036;48.094;-1.690;2023-05-07T05:48:05;9.52;;;5.47;;
27612;SDS011;15036;48.094;-1.690;2023-05-07T05:50:30;8.45;;;5.93;;
27612;SDS011;15036;48.094;-1.690;2023-05-07T05:52:56;10.52;;;5.75;;
27612;SDS011;15036;48.094;-1.690;2023-05-07T05:55:22;8.98;;;5.75;;
27612;SDS011;15036;48.094;-1.690;2023-05-07T05:57:48;9.38;;;5.88;;
27612;SDS011;15036;48.094;-1.690;2023-05-07T06:00:15;13.35;;;6.22;;
27612;SDS011;15036;48.094;-1.690;2023-05-07T06:02:42;10.10;;;6.25;;
27612;SDS011;15036;48.094;-1.690;2023-05-07T06:05:08;9.60;;;6.13;;
27612;SDS011;15036;48.094;-1.690;2023-05-07T06:07:34;10.32;;;5.82;;
27612;SDS011;15036;48.094;-1.690;2023-05-07T06:10:00;8.38;;;5.95;;
27612;SDS011;15036;48.094;-1.690;2023-05-07T06:12:26;9.23;;;6.05;;
27612;SDS011;15036;48.094;-1.690;2023-05-07T06:14:51;9.95;;;5.40;;
27612;SDS011;15036;48.094;-1.690;2023-05-07T06:17:17;10.48;;;5.65;;
27612;SDS011;15036;48.094;-1.690;2023-05-07T06:19:42;9.68;;;6.22;;
27612;SDS011;15036;48.094;-1.690;2023-05-07T06:22:09;8.77;;;5.68;;
27612;SDS011;15036;48.094;-1.690;2023-05-07T06:24:34;7.78;;;5.55;;
27612;SDS011;15036;48.094;-1.690;2023-05-07T06:27:00;8.50;;;5.55;;
27612;SDS011;15036;48.094;-1.690;2023-05-07T06:29:25;8.30;;;6.28;;
27612;SDS011;15036;48.094;-1.690;2023-05-07T06:31:54;7.72;;;5.75;;
27612;SDS011;15036;48.094;-1.690;2023-05-07T06:34:19;8.82;;;5.88;;
27612;SDS011;15036;48.094;-1.690;2023-05-07T06:36:44;11.10;;;5.78;;
27612;SDS011;15036;48.094;-1.690;2023-05-07T06:39:10;9.43;;;6.40;;
27612;SDS011;15036;48.094;-1.690;2023-05-07T06:41:35;10.02;;;6.32;;
27612;SDS011;15036;48.094;-1.690;2023-05-07T06:44:01;9.52;;;5.82;;
27612;SDS011;15036;48.094;-1.690;2023-05-07T06:46:28;7.63;;;5.60;;
27612;SDS011;15036;48.094;-1.690;2023-05-07T06:48:53;8.88;;;5.82;;
27612;SDS011;15036;48.094;-1.690;2023-05-07T06:51:19;9.02;;;5.97;;
27612;SDS011;15036;48.094;-1.690;2023-05-07T06:53:44;7.45;;;5.15;;
27612;SDS011;15036;48.094;-1.690;2023-05-07T06:56:10;8.98;;;5.85;;
27612;SDS011;15036;48.094;-1.690;2023-05-07T06:58:36;7.88;;;5.75;;
27612;SDS011;15036;48.094;-1.690;2023-05-07T07:01:02;9.15;;;6.05;;
27612;SDS011;15036;48.094;-1.690;2023-05-07T07:03:27;8.38;;;5.40;;
27612;SDS011;15036;48.094;-1.690;2023-05-07T07:05:53;8.65;;;5.57;;
27612;SDS011;15036;48.094;-1.690;2023-05-07T07:08:19;8.02;;;5.40;;
27612;SDS011;15036;48.094;-1.690;2023-05-07T07:10:46;9.23;;;5.65;;
27612;SDS011;15036;48.094;-1.690;2023-05-07T07:13:12;8.43;;;5.63;;
27612;SDS011;15036;48.094;-1.690;2023-05-07T07:15:37;6.75;;;5.57;;
27612;SDS011;15036;48.094;-1.690;2023-05-07T07:18:03;7.05;;;5.10;;
27612;SDS011;15036;48.094;-1.690;2023-05-07T07:20:29;7.22;;;5.10;;
27612;SDS011;15036;48.094;-1.690;2023-05-07T07:22:54;8.15;;;5.30;;
27612;SDS011;15036;48.094;-1.690;2023-05-07T07:25:20;8.18;;;6.10;;
27612;SDS011;15036;48.094;-1.690;2023-05-07T07:27:45;8.05;;;6.32;;
27612;SDS011;15036;48.094;-1.690;2023-05-07T07:30:10;8.55;;;6.75;;
27612;SDS011;15036;48.094;-1.690;2023-05-07T07:32:36;9.23;;;6.88;;
27612;SDS011;15036;48.094;-1.690;2023-05-07T07:35:02;9.05;;;6.45;;
27612;SDS011;15036;48.094;-1.690;2023-05-07T07:37:27;10.60;;;7.55;;
27612;SDS011;15036;48.094;-1.690;2023-05-07T07:39:53;11.25;;;7.88;;
27612;SDS011;15036;48.094;-1.690;2023-05-07T07:42:18;12.02;;;8.85;;
27612;SDS011;15036;48.094;-1.690;2023-05-07T07:44:43;11.57;;;8.43;;
27612;SDS011;15036;48.094;-1.690;2023-05-07T07:47:09;14.55;;;8.82;;
27612;SDS011;15036;48.094;-1.690;2023-05-07T07:49:34;13.35;;;9.60;;
27612;SDS011;15036;48.094;-1.690;2023-05-07T07:52:01;14.45;;;10.13;;
27612;SDS011;15036;48.094;-1.690;2023-05-07T07:54:26;16.95;;;10.95;;
27612;SDS011;15036;48.094;-1.690;2023-05-07T07:56:51;15.38;;;10.43;;
27612;SDS011;15036;48.094;-1.690;2023-05-07T07:59:17;16.95;;;10.70;;
27612;SDS011;15036;48.094;-1.690;2023-05-07T08:01:44;17.70;;;11.32;;
27612;SDS011;15036;48.094;-1.690;2023-05-07T08:04:09;17.00;;;11.15;;
27612;SDS011;15036;48.094;-1.690;2023-05-07T08:06:35;16.13;;;10.70;;
27612;SDS011;15036;48.094;-1.690;2023-05-07T08:09:01;17.13;;;11.50;;
27612;SDS011;15036;48.094;-1.690;2023-05-07T08:11:27;16.67;;;10.50;;
27612;SDS011;15036;48.094;-1.690;2023-05-07T08:13:53;16.02;;;10.75;;
27612;SDS011;15036;48.094;-1.690;2023-05-07T08:16:19;14.93;;;10.05;;
27612;SDS011;15036;48.094;-1.690;2023-05-07T08:18:44;15.77;;;10.30;;
27612;SDS011;15036;48.094;-1.690;2023-05-07T08:21:10;13.20;;;9.40;;
27612;SDS011;15036;48.094;-1.690;2023-05-07T08:23:36;14.00;;;9.32;;
27612;SDS011;15036;48.094;-1.690;2023-05-07T08:26:01;14.20;;;9.25;;
27612;SDS011;15036;48.094;-1.690;2023-05-07T08:28:26;13.52;;;9.63;;
27612;SDS011;15036;48.094;-1.690;2023-05-07T08:30:52;12.57;;;8.73;;
27612;SDS011;15036;48.094;-1.690;2023-05-07T08:33:17;12.60;;;7.95;;
27612;SDS011;15036;48.094;-1.690;2023-05-07T08:35:43;10.18;;;7.25;;
27612;SDS011;15036;48.094;-1.690;2023-05-07T08:38:08;9.32;;;6.95;;
27612;SDS011;15036;48.094;-1.690;2023-05-07T08:40:37;11.43;;;8.00;;
27612;SDS011;15036;48.094;-1.690;2023-05-07T08:43:05;10.90;;;7.95;;
27612;SDS011;15036;48.094;-1.690;2023-05-07T08:45:31;10.23;;;7.15;;
27612;SDS011;15036;48.094;-1.690;2023-05-07T08:47:59;9.95;;;7.13;;
27612;SDS011;15036;48.094;-1.690;2023-05-07T08:50:26;9.02;;;6.82;;
27612;SDS011;15036;48.094;-1.690;2023-05-07T08:52:53;9.23;;;7.32;;
27612;SDS011;15036;48.094;-1.690;2023-05-07T08:55:18;9.40;;;7.20;;
27612;SDS011;15036;48.094;-1.690;2023-05-07T08:57:45;8.88;;;6.38;;
27612;SDS011;15036;48.094;-1.690;2023-05-07T09:00:12;8.57;;;6.35;;
27612;SDS011;15036;48.094;-1.690;2023-05-07T09:02:37;8.55;;;6.45;;
27612;SDS011;15036;48.094;-1.690;2023-05-07T09:05:03;8.30;;;6.38;;
27612;SDS011;15036;48.094;-1.690;2023-05-07T09:07:29;7.05;;;5.78;;
27612;SDS011;15036;48.094;-1.690;2023-05-07T09:09:55;8.25;;;6.28;;
27612;SDS011;15036;48.094;-1.690;2023-05-07T09:12:22;7.25;;;6.43;;
27612;SDS011;15036;48.094;-1.690;2023-05-07T09:14:47;8.65;;;5.90;;
27612;SDS011;15036;48.094;-1.690;2023-05-07T09:17:14;7.25;;;6.10;;
27612;SDS011;15036;48.094;-1.690;2023-05-07T09:19:44;7.05;;;5.68;;
27612;SDS011;15036;48.094;-1.690;2023-05-07T09:22:13;9.07;;;6.03;;
27612;SDS011;15036;48.094;-1.690;2023-05-07T09:24:39;9.20;;;5.50;;
27612;SDS011;15036;48.094;-1.690;2023-05-07T09:27:05;6.32;;;5.40;;
27612;SDS011;15036;48.094;-1.690;2023-05-07T09:29:31;5.10;;;4.00;;
27612;SDS011;15036;48.094;-1.690;2023-05-07T09:32:03;4.70;;;3.85;;
27612;SDS011;15036;48.094;-1.690;2023-05-07T09:34:32;6.32;;;4.82;;
27612;SDS011;15036;48.094;-1.690;2023-05-07T09:37:04;6.18;;;4.80;;
27612;SDS011;15036;48.094;-1.690;2023-05-07T09:42:09;6.10;;;4.70;;
27612;SDS011;15036;48.094;-1.690;2023-05-07T09:44:36;5.45;;;4.47;;
27612;SDS011;15036;48.094;-1.690;2023-05-07T09:47:04;4.55;;;3.83;;
27612;SDS011;15036;48.094;-1.690;2023-05-07T09:49:30;5.10;;;3.97;;
27612;SDS011;15036;48.094;-1.690;2023-05-07T09:52:02;4.97;;;3.78;;
27612;SDS011;15036;48.094;-1.690;2023-05-07T09:54:31;5.13;;;3.95;;
27612;SDS011;15036;48.094;-1.690;2023-05-07T09:56:58;4.85;;;3.92;;
27612;SDS011;15036;48.094;-1.690;2023-05-07T09:59:27;6.45;;;4.85;;
27612;SDS011;15036;48.094;-1.690;2023-05-07T10:01:53;7.32;;;4.63;;
27612;SDS011;15036;48.094;-1.690;2023-05-07T10:04:23;5.95;;;4.97;;
27612;SDS011;15036;48.094;-1.690;2023-05-07T10:06:50;5.88;;;4.28;;
27612;SDS011;15036;48.094;-1.690;2023-05-07T10:09:15;4.72;;;3.90;;
27612;SDS011;15036;48.094;-1.690;2023-05-07T10:11:41;4.63;;;3.70;;
27612;SDS011;15036;48.094;-1.690;2023-05-07T10:14:08;5.85;;;4.07;;
27612;SDS011;15036;48.094;-1.690;2023-05-07T10:16:35;6.00;;;3.03;;
27612;SDS011;15036;48.094;-1.690;2023-05-07T10:19:02;4.97;;;3.70;;
27612;SDS011;15036;48.094;-1.690;2023-05-07T10:21:28;5.88;;;3.95;;
27612;SDS011;15036;48.094;-1.690;2023-05-07T10:23:59;5.93;;;3.90;;
27612;SDS011;15036;48.094;-1.690;2023-05-07T10:26:35;5.38;;;3.65;;
27612;SDS011;15036;48.094;-1.690;2023-05-07T10:29:04;6.93;;;5.22;;
27612;SDS011;15036;48.094;-1.690;2023-05-07T10:34:29;5.20;;;3.80;;
27612;SDS011;15036;48.094;-1.690;2023-05-07T10:37:03;6.25;;;4.45;;
27612;SDS011;15036;48.094;-1.690;2023-05-07T10:39:30;5.07;;;3.55;;
27612;SDS011;15036;48.094;-1.690;2023-05-07T10:41:56;5.18;;;3.70;;
27612;SDS011;15036;48.094;-1.690;2023-05-07T10:44:28;5.07;;;3.47;;
27612;SDS011;15036;48.094;-1.690;2023-05-07T10:47:04;5.28;;;3.47;;
27612;SDS011;15036;48.094;-1.690;2023-05-07T10:49:34;4.60;;;2.90;;
27612;SDS011;15036;48.094;-1.690;2023-05-07T10:52:23;3.70;;;2.83;;
27612;SDS011;15036;48.094;-1.690;2023-05-07T10:57:35;6.72;;;4.88;;
27612;SDS011;15036;48.094;-1.690;2023-05-07T11:00:03;6.40;;;3.58;;
27612;SDS011;15036;48.094;-1.690;2023-05-07T11:05:29;5.28;;;3.88;;
27612;SDS011;15036;48.094;-1.690;2023-05-07T11:07:57;5.60;;;4.13;;
27612;SDS011;15036;48.094;-1.690;2023-05-07T11:10:26;6.35;;;3.85;;
27612;SDS011;15036;48.094;-1.690;2023-05-07T11:13:43;7.15;;;4.80;;
27612;SDS011;15036;48.094;-1.690;2023-05-07T11:16:16;6.60;;;4.72;;
27612;SDS011;15036;48.094;-1.690;2023-05-07T11:18:52;7.63;;;4.90;;
27612;SDS011;15036;48.094;-1.690;2023-05-07T11:21:36;6.90;;;4.82;;
27612;SDS011;15036;48.094;-1.690;2023-05-07T11:24:03;7.30;;;4.90;;
27612;SDS011;15036;48.094;-1.690;2023-05-07T11:26:31;7.85;;;4.50;;
27612;SDS011;15036;48.094;-1.690;2023-05-07T11:29:10;7.18;;;4.70;;
27612;SDS011;15036;48.094;-1.690;2023-05-07T11:31:42;6.53;;;4.60;;
27612;SDS011;15036;48.094;-1.690;2023-05-07T11:34:13;6.63;;;4.90;;
27612;SDS011;15036;48.094;-1.690;2023-05-07T11:36:41;6.22;;;4.38;;
27612;SDS011;15036;48.094;-1.690;2023-05-07T11:39:23;4.32;;;3.28;;
27612;SDS011;15036;48.094;-1.690;2023-05-07T11:41:49;6.18;;;4.15;;
27612;SDS011;15036;48.094;-1.690;2023-05-07T11:44:14;7.53;;;4.10;;
27612;SDS011;15036;48.094;-1.690;2023-05-07T11:46:42;6.32;;;4.32;;
27612;SDS011;15036;48.094;-1.690;2023-05-07T11:49:08;6.25;;;3.90;;
27612;SDS011;15036;48.094;-1.690;2023-05-07T11:51:34;5.45;;;3.65;;
27612;SDS011;15036;48.094;-1.690;2023-05-07T11:53:59;6.43;;;3.80;;
27612;SDS011;15036;48.094;-1.690;2023-05-07T11:56:25;6.10;;;3.67;;
27612;SDS011;15036;48.094;-1.690;2023-05-07T11:58:50;7.20;;;3.95;;
27612;SDS011;15036;48.094;-1.690;2023-05-07T12:01:17;5.72;;;3.33;;
27612;SDS011;15036;48.094;-1.690;2023-05-07T12:03:43;5.32;;;3.30;;
27612;SDS011;15036;48.094;-1.690;2023-05-07T12:06:11;8.32;;;4.30;;
27612;SDS011;15036;48.094;-1.690;2023-05-07T12:08:38;8.60;;;4.80;;
27612;SDS011;15036;48.094;-1.690;2023-05-07T12:11:06;7.10;;;4.60;;
27612;SDS011;15036;48.094;-1.690;2023-05-07T12:13:33;7.85;;;4.72;;
27612;SDS011;15036;48.094;-1.690;2023-05-07T12:15:59;7.75;;;4.88;;
27612;SDS011;15036;48.094;-1.690;2023-05-07T12:18:24;8.57;;;4.45;;
27612;SDS011;15036;48.094;-1.690;2023-05-07T12:20:50;10.75;;;5.32;;
27612;SDS011;15036;48.094;-1.690;2023-05-07T12:23:16;11.82;;;5.22;;
27612;SDS011;15036;48.094;-1.690;2023-05-07T12:25:43;9.27;;;5.20;;
27612;SDS011;15036;48.094;-1.690;2023-05-07T12:28:15;10.10;;;4.97;;
27612;SDS011;15036;48.094;-1.690;2023-05-07T12:30:43;8.88;;;4.75;;
27612;SDS011;15036;48.094;-1.690;2023-05-07T12:33:10;7.63;;;4.00;;
27612;SDS011;15036;48.094;-1.690;2023-05-07T12:35:37;5.85;;;3.55;;
27612;SDS011;15036;48.094;-1.690;2023-05-07T12:38:07;6.25;;;3.78;;
27612;SDS011;15036;48.094;-1.690;2023-05-07T12:40:41;9.52;;;4.15;;
27612;SDS011;15036;48.094;-1.690;2023-05-07T12:43:18;7.40;;;4.32;;
27612;SDS011;15036;48.094;-1.690;2023-05-07T12:45:50;11.32;;;4.57;;
27612;SDS011;15036;48.094;-1.690;2023-05-07T12:48:16;9.90;;;4.53;;
27612;SDS011;15036;48.094;-1.690;2023-05-07T12:50:44;8.82;;;4.13;;
27612;SDS011;15036;48.094;-1.690;2023-05-07T12:53:10;9.05;;;4.35;;
27612;SDS011;15036;48.094;-1.690;2023-05-07T12:55:40;8.65;;;3.60;;
27612;SDS011;15036;48.094;-1.690;2023-05-07T12:58:06;7.45;;;3.88;;
27612;SDS011;15036;48.094;-1.690;2023-05-07T13:03:03;8.70;;;3.60;;
27612;SDS011;15036;48.094;-1.690;2023-05-07T13:05:28;7.20;;;4.03;;
27612;SDS011;15036;48.094;-1.690;2023-05-07T13:07:54;6.30;;;3.28;;
27612;SDS011;15036;48.094;-1.690;2023-05-07T13:10:21;7.07;;;3.42;;
27612;SDS011;15036;48.094;-1.690;2023-05-07T13:12:48;7.32;;;3.10;;
27612;SDS011;15036;48.094;-1.690;2023-05-07T13:15:13;8.10;;;3.40;;
27612;SDS011;15036;48.094;-1.690;2023-05-07T13:17:39;6.65;;;3.20;;
27612;SDS011;15036;48.094;-1.690;2023-05-07T13:20:04;5.78;;;3.25;;
27612;SDS011;15036;48.094;-1.690;2023-05-07T13:22:31;7.18;;;2.97;;
27612;SDS011;15036;48.094;-1.690;2023-05-07T13:24:58;7.35;;;3.17;;
27612;SDS011;15036;48.094;-1.690;2023-05-07T13:27:23;7.00;;;2.97;;
27612;SDS011;15036;48.094;-1.690;2023-05-07T13:29:49;5.30;;;3.08;;
27612;SDS011;15036;48.094;-1.690;2023-05-07T13:32:14;5.15;;;3.20;;
27612;SDS011;15036;48.094;-1.690;2023-05-07T13:34:39;6.90;;;3.30;;
27612;SDS011;15036;48.094;-1.690;2023-05-07T13:37:05;7.68;;;2.92;;
27612;SDS011;15036;48.094;-1.690;2023-05-07T13:39:32;7.35;;;2.75;;
27612;SDS011;15036;48.094;-1.690;2023-05-07T13:41:58;7.95;;;2.92;;
27612;SDS011;15036;48.094;-1.690;2023-05-07T13:44:23;6.28;;;2.72;;
27612;SDS011;15036;48.094;-1.690;2023-05-07T13:46:48;4.60;;;2.58;;
27612;SDS011;15036;48.094;-1.690;2023-05-07T13:49:14;4.97;;;2.42;;
27612;SDS011;15036;48.094;-1.690;2023-05-07T13:51:39;3.63;;;2.20;;
27612;SDS011;15036;48.094;-1.690;2023-05-07T13:54:04;3.33;;;1.92;;
27612;SDS011;15036;48.094;-1.690;2023-05-07T13:56:30;6.00;;;1.95;;
27612;SDS011;15036;48.094;-1.690;2023-05-07T13:58:57;3.58;;;1.90;;
27612;SDS011;15036;48.094;-1.690;2023-05-07T14:01:22;4.53;;;2.15;;
27612;SDS011;15036;48.094;-1.690;2023-05-07T14:03:48;4.55;;;1.90;;
27612;SDS011;15036;48.094;-1.690;2023-05-07T14:06:13;3.88;;;1.98;;
27612;SDS011;15036;48.094;-1.690;2023-05-07T14:08:39;3.65;;;1.80;;
27612;SDS011;15036;48.094;-1.690;2023-05-07T14:11:04;4.05;;;1.75;;
27612;SDS011;15036;48.094;-1.690;2023-05-07T14:13:30;4.25;;;1.83;;
27612;SDS011;15036;48.094;-1.690;2023-05-07T14:15:55;3.42;;;1.80;;
27612;SDS011;15036;48.094;-1.690;2023-05-07T14:18:21;4.32;;;2.30;;
27612;SDS011;15036;48.094;-1.690;2023-05-07T14:20:47;2.80;;;1.60;;
27612;SDS011;15036;48.094;-1.690;2023-05-07T14:23:13;4.15;;;1.90;;
27612;SDS011;15036;48.094;-1.690;2023-05-07T14:25:39;5.55;;;2.15;;
27612;SDS011;15036;48.094;-1.690;2023-05-07T14:28:05;3.42;;;2.05;;
27612;SDS011;15036;48.094;-1.690;2023-05-07T14:30:31;5.18;;;2.17;;
27612;SDS011;15036;48.094;-1.690;2023-05-07T14:32:56;3.88;;;1.90;;
27612;SDS011;15036;48.094;-1.690;2023-05-07T14:35:22;3.65;;;2.05;;
27612;SDS011;15036;48.094;-1.690;2023-05-07T14:37:47;5.90;;;1.90;;